sensor_id;sensor_type;location;lat;lon;timestamp;temperature;humidity
44047;DHT22;29713;-33.888;151.150;2023-05-10T00:01:30;17.20;99.90
44047;DHT22;29713;-33.888;151.150;2023-05-10T00:03:58;17.40;99.90
44047;DHT22;29713;-33.888;151.150;2023-05-10T00:06:25;17.40;99.90
44047;DHT22;29713;-33.888;151.150;2023-05-10T00:08:53;17.60;99.90
44047;DHT22;29713;-33.888;151.150;2023-05-10T00:11:20;17.70;99.90
44047;DHT22;29713;-33.888;151.150;2023-05-10T00:13:48;17.80;99.90
44047;DHT22;29713;-33.888;151.150;2023-05-10T00:16:15;17.90;99.90
44047;DHT22;29713;-33.888;151.150;2023-05-10T00:18:42;18.00;99.90
44047;DHT22;29713;-33.888;151.150;2023-05-10T00:21:10;18.20;99.90
44047;DHT22;29713;-33.888;151.150;2023-05-10T00:23:37;18.30;99.90
44047;DHT22;29713;-33.888;151.150;2023-05-10T00:26:04;18.40;99.90
44047;DHT22;29713;-33.888;151.150;2023-05-10T00:28:31;18.60;99.90
44047;DHT22;29713;-33.888;151.150;2023-05-10T00:30:59;18.70;99.90
44047;DHT22;29713;-33.888;151.150;2023-05-10T00:33:26;18.80;99.90
44047;DHT22;29713;-33.888;151.150;2023-05-10T00:35:53;19.10;99.90
44047;DHT22;29713;-33.888;151.150;2023-05-10T00:38:21;19.20;99.90
44047;DHT22;29713;-33.888;151.150;2023-05-10T00:40:48;19.30;99.90
44047;DHT22;29713;-33.888;151.150;2023-05-10T00:43:16;19.40;99.90
44047;DHT22;29713;-33.888;151.150;2023-05-10T00:45:44;19.50;99.90
44047;DHT22;29713;-33.888;151.150;2023-05-10T00:48:11;19.70;99.90
44047;DHT22;29713;-33.888;151.150;2023-05-10T00:50:39;19.90;99.90
44047;DHT22;29713;-33.888;151.150;2023-05-10T00:53:07;19.80;99.90
44047;DHT22;29713;-33.888;151.150;2023-05-10T00:55:34;19.90;99.90
44047;DHT22;29713;-33.888;151.150;2023-05-10T00:58:01;20.00;99.90
44047;DHT22;29713;-33.888;151.150;2023-05-10T01:00:29;20.20;99.90
44047;DHT22;29713;-33.888;151.150;2023-05-10T01:02:57;20.40;99.90
44047;DHT22;29713;-33.888;151.150;2023-05-10T01:05:25;20.50;99.90
44047;DHT22;29713;-33.888;151.150;2023-05-10T01:07:53;20.80;99.90
44047;DHT22;29713;-33.888;151.150;2023-05-10T01:10:21;20.80;99.90
44047;DHT22;29713;-33.888;151.150;2023-05-10T01:12:48;21.00;99.90
44047;DHT22;29713;-33.888;151.150;2023-05-10T01:15:17;20.90;99.90
44047;DHT22;29713;-33.888;151.150;2023-05-10T01:17:45;21.00;99.90
44047;DHT22;29713;-33.888;151.150;2023-05-10T01:20:15;21.20;99.90
44047;DHT22;29713;-33.888;151.150;2023-05-10T01:25:59;21.70;99.90
44047;DHT22;29713;-33.888;151.150;2023-05-10T01:28:35;21.90;99.90
44047;DHT22;29713;-33.888;151.150;2023-05-10T01:34:04;22.10;99.90
44047;DHT22;29713;-33.888;151.150;2023-05-10T01:40:18;22.50;99.90
44047;DHT22;29713;-33.888;151.150;2023-05-10T01:42:28;22.80;99.90
44047;DHT22;29713;-33.888;151.150;2023-05-10T01:45:57;22.90;99.90
44047;DHT22;29713;-33.888;151.150;2023-05-10T01:48:12;22.90;99.90
44047;DHT22;29713;-33.888;151.150;2023-05-10T01:50:43;22.90;99.90
44047;DHT22;29713;-33.888;151.150;2023-05-10T01:53:12;23.30;99.90
44047;DHT22;29713;-33.888;151.150;2023-05-10T01:55:46;23.60;99.90
44047;DHT22;29713;-33.888;151.150;2023-05-10T01:58:25;24.00;99.90
44047;DHT22;29713;-33.888;151.150;2023-05-10T02:00:54;24.30;99.90
44047;DHT22;29713;-33.888;151.150;2023-05-10T02:03:23;24.80;99.90
44047;DHT22;29713;-33.888;151.150;2023-05-10T02:05:53;25.00;98.80
44047;DHT22;29713;-33.888;151.150;2023-05-10T02:08:22;25.20;97.00
44047;DHT22;29713;-33.888;151.150;2023-05-10T02:10:54;25.30;97.60
44047;DHT22;29713;-33.888;151.150;2023-05-10T02:13:24;25.70;97.90
44047;DHT22;29713;-33.888;151.150;2023-05-10T02:15:53;25.80;96.90
44047;DHT22;29713;-33.888;151.150;2023-05-10T02:18:23;26.00;96.40
44047;DHT22;29713;-33.888;151.150;2023-05-10T02:20:52;26.10;96.20
44047;DHT22;29713;-33.888;151.150;2023-05-10T02:23:20;26.20;95.50
44047;DHT22;29713;-33.888;151.150;2023-05-10T02:25:49;26.40;95.40
44047;DHT22;29713;-33.888;151.150;2023-05-10T02:28:18;26.40;94.70
44047;DHT22;29713;-33.888;151.150;2023-05-10T02:30:47;26.60;95.20
44047;DHT22;29713;-33.888;151.150;2023-05-10T02:33:15;26.40;93.40
44047;DHT22;29713;-33.888;151.150;2023-05-10T02:35:43;26.30;93.30
44047;DHT22;29713;-33.888;151.150;2023-05-10T02:38:11;26.40;94.40
44047;DHT22;29713;-33.888;151.150;2023-05-10T02:40:41;26.60;94.40
44047;DHT22;29713;-33.888;151.150;2023-05-10T02:43:14;26.80;93.60
44047;DHT22;29713;-33.888;151.150;2023-05-10T02:45:43;27.00;93.40
44047;DHT22;29713;-33.888;151.150;2023-05-10T02:48:13;27.10;92.90
44047;DHT22;29713;-33.888;151.150;2023-05-10T02:50:43;27.10;92.40
44047;DHT22;29713;-33.888;151.150;2023-05-10T02:53:15;27.00;91.90
44047;DHT22;29713;-33.888;151.150;2023-05-10T02:55:47;27.00;91.90
44047;DHT22;29713;-33.888;151.150;2023-05-10T02:58:15;27.00;92.20
44047;DHT22;29713;-33.888;151.150;2023-05-10T03:00:46;27.00;91.00
44047;DHT22;29713;-33.888;151.150;2023-05-10T03:03:14;27.00;91.70
44047;DHT22;29713;-33.888;151.150;2023-05-10T03:05:42;27.10;92.10
44047;DHT22;29713;-33.888;151.150;2023-05-10T03:08:09;26.80;91.20
44047;DHT22;29713;-33.888;151.150;2023-05-10T03:10:44;26.70;91.70
44047;DHT22;29713;-33.888;151.150;2023-05-10T03:13:37;26.80;91.70
44047;DHT22;29713;-33.888;151.150;2023-05-10T03:16:10;26.80;91.80
44047;DHT22;29713;-33.888;151.150;2023-05-10T03:18:54;27.00;91.60
44047;DHT22;29713;-33.888;151.150;2023-05-10T03:21:26;26.90;91.50
44047;DHT22;29713;-33.888;151.150;2023-05-10T03:24:07;27.00;91.20
44047;DHT22;29713;-33.888;151.150;2023-05-10T03:26:35;26.90;91.50
44047;DHT22;29713;-33.888;151.150;2023-05-10T03:29:05;26.90;91.10
44047;DHT22;29713;-33.888;151.150;2023-05-10T03:31:34;26.70;91.00
44047;DHT22;29713;-33.888;151.150;2023-05-10T03:34:01;26.80;91.30
44047;DHT22;29713;-33.888;151.150;2023-05-10T03:36:28;26.60;91.10
44047;DHT22;29713;-33.888;151.150;2023-05-10T03:38:56;26.80;91.40
44047;DHT22;29713;-33.888;151.150;2023-05-10T03:41:23;26.80;91.40
44047;DHT22;29713;-33.888;151.150;2023-05-10T03:43:52;26.70;91.10
44047;DHT22;29713;-33.888;151.150;2023-05-10T03:46:19;26.50;90.30
44047;DHT22;29713;-33.888;151.150;2023-05-10T03:48:46;26.10;90.70
44047;DHT22;29713;-33.888;151.150;2023-05-10T03:51:13;25.90;91.00
44047;DHT22;29713;-33.888;151.150;2023-05-10T03:53:41;25.90;91.30
44047;DHT22;29713;-33.888;151.150;2023-05-10T03:56:08;26.00;91.30
44047;DHT22;29713;-33.888;151.150;2023-05-10T03:58:35;26.00;90.80
44047;DHT22;29713;-33.888;151.150;2023-05-10T04:01:03;26.00;90.80
44047;DHT22;29713;-33.888;151.150;2023-05-10T04:03:30;26.20;90.80
44047;DHT22;29713;-33.888;151.150;2023-05-10T04:06:01;26.30;90.40
44047;DHT22;29713;-33.888;151.150;2023-05-10T04:08:29;26.40;91.50
44047;DHT22;29713;-33.888;151.150;2023-05-10T04:11:06;26.30;90.70
44047;DHT22;29713;-33.888;151.150;2023-05-10T04:13:34;26.20;90.50
44047;DHT22;29713;-33.888;151.150;2023-05-10T04:16:02;26.30;91.10
44047;DHT22;29713;-33.888;151.150;2023-05-10T04:18:33;26.10;91.20
44047;DHT22;29713;-33.888;151.150;2023-05-10T04:21:00;26.00;91.80
44047;DHT22;29713;-33.888;151.150;2023-05-10T04:23:28;25.80;92.00
44047;DHT22;29713;-33.888;151.150;2023-05-10T04:26:02;25.60;92.30
44047;DHT22;29713;-33.888;151.150;2023-05-10T04:28:29;25.50;92.50
44047;DHT22;29713;-33.888;151.150;2023-05-10T04:31:07;25.30;92.40
44047;DHT22;29713;-33.888;151.150;2023-05-10T04:33:34;25.00;92.70
44047;DHT22;29713;-33.888;151.150;2023-05-10T04:36:02;24.60;93.30
44047;DHT22;29713;-33.888;151.150;2023-05-10T04:38:30;24.40;93.70
44047;DHT22;29713;-33.888;151.150;2023-05-10T04:41:08;24.20;93.90
44047;DHT22;29713;-33.888;151.150;2023-05-10T04:43:36;23.80;94.20
44047;DHT22;29713;-33.888;151.150;2023-05-10T04:46:04;23.60;94.40
44047;DHT22;29713;-33.888;151.150;2023-05-10T04:48:32;23.50;94.80
44047;DHT22;29713;-33.888;151.150;2023-05-10T04:51:00;23.20;95.40
44047;DHT22;29713;-33.888;151.150;2023-05-10T04:53:27;23.10;96.10
44047;DHT22;29713;-33.888;151.150;2023-05-10T04:55:55;23.20;96.40
44047;DHT22;29713;-33.888;151.150;2023-05-10T04:58:22;22.90;96.40
44047;DHT22;29713;-33.888;151.150;2023-05-10T05:00:49;22.80;96.80
44047;DHT22;29713;-33.888;151.150;2023-05-10T05:03:17;22.60;97.50
44047;DHT22;29713;-33.888;151.150;2023-05-10T05:05:44;22.30;98.10
44047;DHT22;29713;-33.888;151.150;2023-05-10T05:08:14;21.90;98.60
44047;DHT22;29713;-33.888;151.150;2023-05-10T05:10:42;21.70;99.70
44047;DHT22;29713;-33.888;151.150;2023-05-10T05:13:09;21.40;99.90
44047;DHT22;29713;-33.888;151.150;2023-05-10T05:15:36;21.20;99.90
44047;DHT22;29713;-33.888;151.150;2023-05-10T05:18:04;21.00;99.90
44047;DHT22;29713;-33.888;151.150;2023-05-10T05:20:33;20.80;99.90
44047;DHT22;29713;-33.888;151.150;2023-05-10T05:23:01;20.60;99.90
44047;DHT22;29713;-33.888;151.150;2023-05-10T05:25:29;20.50;99.90
44047;DHT22;29713;-33.888;151.150;2023-05-10T05:27:56;20.40;99.90
44047;DHT22;29713;-33.888;151.150;2023-05-10T05:30:23;20.20;99.90
44047;DHT22;29713;-33.888;151.150;2023-05-10T05:32:51;20.10;99.90
44047;DHT22;29713;-33.888;151.150;2023-05-10T05:35:18;20.10;99.90
44047;DHT22;29713;-33.888;151.150;2023-05-10T05:37:46;20.00;99.90
44047;DHT22;29713;-33.888;151.150;2023-05-10T05:40:13;20.00;99.90
44047;DHT22;29713;-33.888;151.150;2023-05-10T05:42:41;19.90;99.90
44047;DHT22;29713;-33.888;151.150;2023-05-10T05:45:08;19.80;99.90
44047;DHT22;29713;-33.888;151.150;2023-05-10T05:47:39;19.80;99.90
44047;DHT22;29713;-33.888;151.150;2023-05-10T05:50:07;19.70;99.90
44047;DHT22;29713;-33.888;151.150;2023-05-10T05:52:34;19.70;99.90
44047;DHT22;29713;-33.888;151.150;2023-05-10T05:55:02;19.60;99.90
44047;DHT22;29713;-33.888;151.150;2023-05-10T05:57:30;19.60;99.90
44047;DHT22;29713;-33.888;151.150;2023-05-10T05:59:58;19.50;99.90
44047;DHT22;29713;-33.888;151.150;2023-05-10T06:02:26;19.40;99.90
44047;DHT22;29713;-33.888;151.150;2023-05-10T06:04:53;19.40;99.90
44047;DHT22;29713;-33.888;151.150;2023-05-10T06:07:20;19.40;99.90
44047;DHT22;29713;-33.888;151.150;2023-05-10T06:09:48;19.40;99.90
44047;DHT22;29713;-33.888;151.150;2023-05-10T06:12:15;19.30;99.90
44047;DHT22;29713;-33.888;151.150;2023-05-10T06:14:42;19.30;99.90
44047;DHT22;29713;-33.888;151.150;2023-05-10T06:17:09;19.30;99.90
44047;DHT22;29713;-33.888;151.150;2023-05-10T06:19:37;19.20;99.90
44047;DHT22;29713;-33.888;151.150;2023-05-10T06:22:04;19.20;99.90
44047;DHT22;29713;-33.888;151.150;2023-05-10T06:24:32;19.20;99.90
44047;DHT22;29713;-33.888;151.150;2023-05-10T06:26:59;19.10;99.90
44047;DHT22;29713;-33.888;151.150;2023-05-10T06:29:27;19.10;99.90
44047;DHT22;29713;-33.888;151.150;2023-05-10T06:31:54;19.00;99.90
44047;DHT22;29713;-33.888;151.150;2023-05-10T06:34:21;19.00;99.90
44047;DHT22;29713;-33.888;151.150;2023-05-10T06:36:48;18.90;99.90
44047;DHT22;29713;-33.888;151.150;2023-05-10T06:39:16;18.90;99.90
44047;DHT22;29713;-33.888;151.150;2023-05-10T06:41:43;18.80;99.90
44047;DHT22;29713;-33.888;151.150;2023-05-10T06:44:10;18.80;99.90
44047;DHT22;29713;-33.888;151.150;2023-05-10T06:46:38;18.70;99.90
44047;DHT22;29713;-33.888;151.150;2023-05-10T06:49:05;18.70;99.90
44047;DHT22;29713;-33.888;151.150;2023-05-10T06:51:33;18.60;99.90
44047;DHT22;29713;-33.888;151.150;2023-05-10T06:54:00;18.60;99.90
44047;DHT22;29713;-33.888;151.150;2023-05-10T06:56:28;18.50;99.90
44047;DHT22;29713;-33.888;151.150;2023-05-10T06:58:55;18.50;99.90
44047;DHT22;29713;-33.888;151.150;2023-05-10T07:01:22;18.40;99.90
44047;DHT22;29713;-33.888;151.150;2023-05-10T07:03:50;18.40;99.90
44047;DHT22;29713;-33.888;151.150;2023-05-10T07:06:17;18.40;99.90
44047;DHT22;29713;-33.888;151.150;2023-05-10T07:08:44;18.30;99.90
44047;DHT22;29713;-33.888;151.150;2023-05-10T07:11:12;18.30;99.90
44047;DHT22;29713;-33.888;151.150;2023-05-10T07:13:39;18.20;99.90
44047;DHT22;29713;-33.888;151.150;2023-05-10T07:16:10;18.20;99.90
44047;DHT22;29713;-33.888;151.150;2023-05-10T07:18:38;18.10;99.90
44047;DHT22;29713;-33.888;151.150;2023-05-10T07:21:08;18.10;99.90
44047;DHT22;29713;-33.888;151.150;2023-05-10T07:23:35;18.00;99.90
44047;DHT22;29713;-33.888;151.150;2023-05-10T07:26:03;18.00;99.90
44047;DHT22;29713;-33.888;151.150;2023-05-10T07:28:30;17.90;99.90
44047;DHT22;29713;-33.888;151.150;2023-05-10T07:30:57;17.90;99.90
44047;DHT22;29713;-33.888;151.150;2023-05-10T07:33:25;17.90;99.90
44047;DHT22;29713;-33.888;151.150;2023-05-10T07:35:52;17.80;99.90
44047;DHT22;29713;-33.888;151.150;2023-05-10T07:38:19;17.90;99.90
44047;DHT22;29713;-33.888;151.150;2023-05-10T07:40:47;17.80;99.90
44047;DHT22;29713;-33.888;151.150;2023-05-10T07:43:14;17.80;99.90
44047;DHT22;29713;-33.888;151.150;2023-05-10T07:45:42;17.80;99.90
44047;DHT22;29713;-33.888;151.150;2023-05-10T07:48:09;17.80;99.90
44047;DHT22;29713;-33.888;151.150;2023-05-10T07:50:37;17.80;99.90
44047;DHT22;29713;-33.888;151.150;2023-05-10T07:53:04;17.70;99.90
44047;DHT22;29713;-33.888;151.150;2023-05-10T07:55:31;17.70;99.90
44047;DHT22;29713;-33.888;151.150;2023-05-10T07:57:59;17.70;99.90
44047;DHT22;29713;-33.888;151.150;2023-05-10T08:00:27;17.70;99.90
44047;DHT22;29713;-33.888;151.150;2023-05-10T08:02:54;17.60;99.90
44047;DHT22;29713;-33.888;151.150;2023-05-10T08:05:22;17.60;99.90
44047;DHT22;29713;-33.888;151.150;2023-05-10T08:07:49;17.60;99.90
44047;DHT22;29713;-33.888;151.150;2023-05-10T08:10:17;17.60;99.90
44047;DHT22;29713;-33.888;151.150;2023-05-10T08:12:44;17.50;99.90
44047;DHT22;29713;-33.888;151.150;2023-05-10T08:15:11;17.50;99.90
44047;DHT22;29713;-33.888;151.150;2023-05-10T08:17:39;17.50;99.90
44047;DHT22;29713;-33.888;151.150;2023-05-10T08:20:06;17.50;99.90
44047;DHT22;29713;-33.888;151.150;2023-05-10T08:22:34;17.50;99.90
44047;DHT22;29713;-33.888;151.150;2023-05-10T08:25:01;17.40;99.90
44047;DHT22;29713;-33.888;151.150;2023-05-10T08:27:29;17.40;99.90
44047;DHT22;29713;-33.888;151.150;2023-05-10T08:29:56;17.40;99.90
44047;DHT22;29713;-33.888;151.150;2023-05-10T08:32:23;17.30;99.90
44047;DHT22;29713;-33.888;151.150;2023-05-10T08:34:51;17.30;99.90
44047;DHT22;29713;-33.888;151.150;2023-05-10T08:37:18;17.30;99.90
44047;DHT22;29713;-33.888;151.150;2023-05-10T08:39:46;17.30;99.90
44047;DHT22;29713;-33.888;151.150;2023-05-10T08:42:16;17.30;99.90
44047;DHT22;29713;-33.888;151.150;2023-05-10T08:44:49;17.30;99.90
44047;DHT22;29713;-33.888;151.150;2023-05-10T08:47:18;17.20;99.90
44047;DHT22;29713;-33.888;151.150;2023-05-10T08:49:48;17.20;99.90
44047;DHT22;29713;-33.888;151.150;2023-05-10T08:52:18;17.10;99.90
44047;DHT22;29713;-33.888;151.150;2023-05-10T08:54:47;17.10;99.90
44047;DHT22;29713;-33.888;151.150;2023-05-10T08:57:15;17.00;99.90
44047;DHT22;29713;-33.888;151.150;2023-05-10T08:59:42;17.00;99.90
44047;DHT22;29713;-33.888;151.150;2023-05-10T09:02:11;17.00;99.90
44047;DHT22;29713;-33.888;151.150;2023-05-10T09:04:39;17.00;99.90
44047;DHT22;29713;-33.888;151.150;2023-05-10T09:07:07;16.90;99.90
44047;DHT22;29713;-33.888;151.150;2023-05-10T09:09:35;16.90;99.90
44047;DHT22;29713;-33.888;151.150;2023-05-10T09:12:04;16.90;99.90
44047;DHT22;29713;-33.888;151.150;2023-05-10T09:14:31;16.90;99.90
44047;DHT22;29713;-33.888;151.150;2023-05-10T09:17:01;16.80;99.90
44047;DHT22;29713;-33.888;151.150;2023-05-10T09:19:28;16.80;99.90
44047;DHT22;29713;-33.888;151.150;2023-05-10T09:21:56;16.80;99.90
44047;DHT22;29713;-33.888;151.150;2023-05-10T09:24:26;16.80;99.90
44047;DHT22;29713;-33.888;151.150;2023-05-10T09:26:54;16.80;99.90
44047;DHT22;29713;-33.888;151.150;2023-05-10T09:29:23;16.80;99.90
44047;DHT22;29713;-33.888;151.150;2023-05-10T09:31:52;16.80;99.90
44047;DHT22;29713;-33.888;151.150;2023-05-10T09:34:29;16.80;99.90
44047;DHT22;29713;-33.888;151.150;2023-05-10T09:37:01;16.80;99.90
44047;DHT22;29713;-33.888;151.150;2023-05-10T09:39:37;16.80;99.90
44047;DHT22;29713;-33.888;151.150;2023-05-10T09:42:10;16.70;99.90
44047;DHT22;29713;-33.888;151.150;2023-05-10T09:44:38;16.70;99.90
44047;DHT22;29713;-33.888;151.150;2023-05-10T09:47:07;16.70;99.90
44047;DHT22;29713;-33.888;151.150;2023-05-10T09:49:34;16.60;99.90
44047;DHT22;29713;-33.888;151.150;2023-05-10T09:52:04;16.60;99.90
44047;DHT22;29713;-33.888;151.150;2023-05-10T09:54:33;16.60;99.90
44047;DHT22;29713;-33.888;151.150;2023-05-10T09:57:01;16.50;99.90
44047;DHT22;29713;-33.888;151.150;2023-05-10T09:59:32;16.50;99.90
44047;DHT22;29713;-33.888;151.150;2023-05-10T10:02:01;16.50;99.90
44047;DHT22;29713;-33.888;151.150;2023-05-10T10:04:31;16.40;99.90
44047;DHT22;29713;-33.888;151.150;2023-05-10T10:07:03;16.40;99.90
44047;DHT22;29713;-33.888;151.150;2023-05-10T10:09:31;16.40;99.90
44047;DHT22;29713;-33.888;151.150;2023-05-10T10:12:02;16.40;99.90
44047;DHT22;29713;-33.888;151.150;2023-05-10T10:14:31;16.30;99.90
44047;DHT22;29713;-33.888;151.150;2023-05-10T10:17:00;16.30;99.90
44047;DHT22;29713;-33.888;151.150;2023-05-10T10:19:28;16.20;99.90
44047;DHT22;29713;-33.888;151.150;2023-05-10T10:21:57;16.10;99.90
44047;DHT22;29713;-33.888;151.150;2023-05-10T10:24:25;16.10;99.90
44047;DHT22;29713;-33.888;151.150;2023-05-10T10:26:57;16.00;99.90
44047;DHT22;29713;-33.888;151.150;2023-05-10T10:29:59;15.90;99.90
44047;DHT22;29713;-33.888;151.150;2023-05-10T10:35:23;15.80;99.90
44047;DHT22;29713;-33.888;151.150;2023-05-10T10:37:51;15.70;99.90
44047;DHT22;29713;-33.888;151.150;2023-05-10T10:40:29;15.70;99.90
44047;DHT22;29713;-33.888;151.150;2023-05-10T10:42:57;15.70;99.90
44047;DHT22;29713;-33.888;151.150;2023-05-10T10:45:25;15.60;99.90
44047;DHT22;29713;-33.888;151.150;2023-05-10T10:48:20;15.50;99.90
44047;DHT22;29713;-33.888;151.150;2023-05-10T10:50:47;15.50;99.90
44047;DHT22;29713;-33.888;151.150;2023-05-10T10:53:14;15.40;99.90
44047;DHT22;29713;-33.888;151.150;2023-05-10T10:55:48;15.40;99.90
44047;DHT22;29713;-33.888;151.150;2023-05-10T10:58:31;15.40;99.90
44047;DHT22;29713;-33.888;151.150;2023-05-10T11:01:32;15.30;99.90
44047;DHT22;29713;-33.888;151.150;2023-05-10T11:06:36;15.30;99.90
44047;DHT22;29713;-33.888;151.150;2023-05-10T11:09:12;15.20;99.90
44047;DHT22;29713;-33.888;151.150;2023-05-10T11:11:53;15.20;99.90
44047;DHT22;29713;-33.888;151.150;2023-05-10T11:14:24;15.20;99.90
44047;DHT22;29713;-33.888;151.150;2023-05-10T11:16:52;15.10;99.90
44047;DHT22;29713;-33.888;151.150;2023-05-10T11:19:19;15.10;99.90
44047;DHT22;29713;-33.888;151.150;2023-05-10T11:21:48;15.10;99.90
44047;DHT22;29713;-33.888;151.150;2023-05-10T11:24:17;15.00;99.90
44047;DHT22;29713;-33.888;151.150;2023-05-10T11:26:45;15.00;99.90
44047;DHT22;29713;-33.888;151.150;2023-05-10T11:29:13;15.00;99.90
44047;DHT22;29713;-33.888;151.150;2023-05-10T11:31:44;15.00;99.90
44047;DHT22;29713;-33.888;151.150;2023-05-10T11:34:23;14.90;99.90
44047;DHT22;29713;-33.888;151.150;2023-05-10T11:36:55;14.90;99.90
44047;DHT22;29713;-33.888;151.150;2023-05-10T11:39:27;14.90;99.90
44047;DHT22;29713;-33.888;151.150;2023-05-10T11:41:55;14.80;99.90
44047;DHT22;29713;-33.888;151.150;2023-05-10T11:44:22;14.80;99.90
44047;DHT22;29713;-33.888;151.150;2023-05-10T11:46:50;14.80;99.90
44047;DHT22;29713;-33.888;151.150;2023-05-10T11:49:17;14.80;99.90
44047;DHT22;29713;-33.888;151.150;2023-05-10T11:51:45;14.80;99.90
44047;DHT22;29713;-33.888;151.150;2023-05-10T11:54:12;14.90;99.90
44047;DHT22;29713;-33.888;151.150;2023-05-10T11:56:40;14.80;99.90
44047;DHT22;29713;-33.888;151.150;2023-05-10T11:59:07;14.80;99.90
44047;DHT22;29713;-33.888;151.150;2023-05-10T12:01:35;14.80;99.90
44047;DHT22;29713;-33.888;151.150;2023-05-10T12:04:03;14.80;99.90
44047;DHT22;29713;-33.888;151.150;2023-05-10T12:06:32;14.80;99.90
44047;DHT22;29713;-33.888;151.150;2023-05-10T12:09:06;14.80;99.90
44047;DHT22;29713;-33.888;151.150;2023-05-10T12:11:39;14.90;99.90
44047;DHT22;29713;-33.888;151.150;2023-05-10T12:14:08;14.90;99.90
44047;DHT22;29713;-33.888;151.150;2023-05-10T12:16:36;14.90;99.90
44047;DHT22;29713;-33.888;151.150;2023-05-10T12:19:04;14.90;99.90
44047;DHT22;29713;-33.888;151.150;2023-05-10T12:21:32;14.90;99.90
44047;DHT22;29713;-33.888;151.150;2023-05-10T12:24:03;14.80;99.90
44047;DHT22;29713;-33.888;151.150;2023-05-10T12:26:35;14.80;99.90
44047;DHT22;29713;-33.888;151.150;2023-05-10T12:29:16;14.70;99.90
44047;DHT22;29713;-33.888;151.150;2023-05-10T12:31:55;14.70;99.90
44047;DHT22;29713;-33.888;151.150;2023-05-10T12:34:32;14.70;99.90
44047;DHT22;29713;-33.888;151.150;2023-05-10T12:37:00;14.70;99.90
44047;DHT22;29713;-33.888;151.150;2023-05-10T12:39:44;14.70;99.90
44047;DHT22;29713;-33.888;151.150;2023-05-10T12:42:12;14.60;99.90
44047;DHT22;29713;-33.888;151.150;2023-05-10T12:44:40;14.60;99.90
44047;DHT22;29713;-33.888;151.150;2023-05-10T12:47:07;14.60;99.90
44047;DHT22;29713;-33.888;151.150;2023-05-10T12:49:35;14.50;99.90
44047;DHT22;29713;-33.888;151.150;2023-05-10T12:52:02;14.50;99.90
44047;DHT22;29713;-33.888;151.150;2023-05-10T12:54:29;14.50;99.90
44047;DHT22;29713;-33.888;151.150;2023-05-10T12:56:57;14.40;99.90
44047;DHT22;29713;-33.888;151.150;2023-05-10T12:59:24;14.40;99.90
44047;DHT22;29713;-33.888;151.150;2023-05-10T13:01:51;14.40;99.90
44047;DHT22;29713;-33.888;151.150;2023-05-10T13:04:19;14.40;99.90
44047;DHT22;29713;-33.888;151.150;2023-05-10T13:06:46;14.40;99.90
44047;DHT22;29713;-33.888;151.150;2023-05-10T13:09:13;14.30;99.90
44047;DHT22;29713;-33.888;151.150;2023-05-10T13:11:41;14.40;99.90
44047;DHT22;29713;-33.888;151.150;2023-05-10T13:14:09;14.30;99.90
44047;DHT22;29713;-33.888;151.150;2023-05-10T13:16:36;14.30;99.90
44047;DHT22;29713;-33.888;151.150;2023-05-10T13:19:03;14.30;99.90
44047;DHT22;29713;-33.888;151.150;2023-05-10T13:21:31;14.30;99.90
44047;DHT22;29713;-33.888;151.150;2023-05-10T13:23:58;14.20;99.90
44047;DHT22;29713;-33.888;151.150;2023-05-10T13:26:26;14.20;99.90
44047;DHT22;29713;-33.888;151.150;2023-05-10T13:28:54;14.20;99.90
44047;DHT22;29713;-33.888;151.150;2023-05-10T13:31:22;14.20;99.90
44047;DHT22;29713;-33.888;151.150;2023-05-10T13:33:49;14.10;99.90
44047;DHT22;29713;-33.888;151.150;2023-05-10T13:36:16;14.10;99.90
44047;DHT22;29713;-33.888;151.150;2023-05-10T13:38:44;14.10;99.90
44047;DHT22;29713;-33.888;151.150;2023-05-10T13:41:11;14.10;99.90
44047;DHT22;29713;-33.888;151.150;2023-05-10T13:43:38;14.10;99.90
44047;DHT22;29713;-33.888;151.150;2023-05-10T13:46:06;14.10;99.90
44047;DHT22;29713;-33.888;151.150;2023-05-10T13:48:33;14.00;99.90
44047;DHT22;29713;-33.888;151.150;2023-05-10T13:51:00;14.00;99.90
44047;DHT22;29713;-33.888;151.150;2023-05-10T13:53:28;14.00;99.90
44047;DHT22;29713;-33.888;151.150;2023-05-10T13:55:55;14.00;99.90
44047;DHT22;29713;-33.888;151.150;2023-05-10T13:58:22;14.00;99.90
44047;DHT22;29713;-33.888;151.150;2023-05-10T14:00:50;14.00;99.90
44047;DHT22;29713;-33.888;151.150;2023-05-10T14:03:17;13.90;99.90
44047;DHT22;29713;-33.888;151.150;2023-05-10T14:05:44;13.90;99.90
44047;DHT22;29713;-33.888;151.150;2023-05-10T14:08:12;13.90;99.90
44047;DHT22;29713;-33.888;151.150;2023-05-10T14:10:40;13.90;99.90
44047;DHT22;29713;-33.888;151.150;2023-05-10T14:13:07;13.90;99.90
44047;DHT22;29713;-33.888;151.150;2023-05-10T14:15:34;13.90;99.90
44047;DHT22;29713;-33.888;151.150;2023-05-10T14:18:02;13.80;99.90
44047;DHT22;29713;-33.888;151.150;2023-05-10T14:20:29;13.80;99.90
44047;DHT22;29713;-33.888;151.150;2023-05-10T14:22:58;13.80;99.90
44047;DHT22;29713;-33.888;151.150;2023-05-10T14:25:25;13.80;99.90
44047;DHT22;29713;-33.888;151.150;2023-05-10T14:27:53;13.80;99.90
44047;DHT22;29713;-33.888;151.150;2023-05-10T14:30:21;13.80;99.90
44047;DHT22;29713;-33.888;151.150;2023-05-10T14:32:48;13.80;99.90
44047;DHT22;29713;-33.888;151.150;2023-05-10T14:35:16;13.80;99.90
44047;DHT22;29713;-33.888;151.150;2023-05-10T14:37:43;13.80;99.90
44047;DHT22;29713;-33.888;151.150;2023-05-10T14:40:11;13.80;99.90
44047;DHT22;29713;-33.888;151.150;2023-05-10T14:42:38;13.80;99.90
44047;DHT22;29713;-33.888;151.150;2023-05-10T14:45:06;13.80;99.90
44047;DHT22;29713;-33.888;151.150;2023-05-10T14:47:33;13.80;99.90
44047;DHT22;29713;-33.888;151.150;2023-05-10T14:50:01;13.70;99.90
44047;DHT22;29713;-33.888;151.150;2023-05-10T14:52:28;13.70;99.90
44047;DHT22;29713;-33.888;151.150;2023-05-10T14:54:56;13.70;99.90
44047;DHT22;29713;-33.888;151.150;2023-05-10T14:57:23;13.70;99.90
44047;DHT22;29713;-33.888;151.150;2023-05-10T14:59:50;13.70;99.90
44047;DHT22;29713;-33.888;151.150;2023-05-10T15:02:18;13.70;99.90
44047;DHT22;29713;-33.888;151.150;2023-05-10T15:04:45;13.70;99.90
44047;DHT22;29713;-33.888;151.150;2023-05-10T15:07:12;13.70;99.90
44047;DHT22;29713;-33.888;151.150;2023-05-10T15:09:42;13.70;99.90
44047;DHT22;29713;-33.888;151.150;2023-05-10T15:12:10;13.70;99.90
44047;DHT22;29713;-33.888;151.150;2023-05-10T15:14:37;13.70;99.90